Time;durP1;ratioP1;P1;durP2;ratioP2;P2;SDS_P1;SDS_P2;PMS_P1;PMS_P2;Temp;Humidity;BMP_temperature;BMP_pressure;BME280_temperature;BME280_humidity;BME280_pressure;Samples;Min_cycle;Max_cycle;Signal;HPM_P1;HPM_P2
2023/06/23 00:01:02;;;;;;;17.00;9.38;;;23.90;99.90;;;;;;4950693;28;20028;-81
2023/06/23 00:03:30;;;;;;;14.18;8.20;;;23.80;99.90;;;;;;4935924;29;20036;-79
2023/06/23 00:05:57;;;;;;;19.23;9.35;;;23.80;99.90;;;;;;4932408;29;20038;-80
2023/06/23 00:08:23;;;;;;;18.98;9.50;;;23.70;99.90;;;;;;4933116;29;20048;-79
2023/06/23 00:10:49;;;;;;;18.20;9.55;;;23.70;99.90;;;;;;4932627;29;20043;-79
2023/06/23 00:13:18;;;;;;;15.80;9.18;;;23.60;99.90;;;;;;4932749;29;20034;-78
2023/06/23 00:15:44;;;;;;;16.48;9.52;;;23.60;99.90;;;;;;4930794;29;20087;-74
2023/06/23 00:18:10;;;;;;;14.88;8.60;;;23.60;99.90;;;;;;4936331;29;20078;-80
2023/06/23 00:20:36;;;;;;;20.92;9.90;;;23.60;99.90;;;;;;4935655;29;20036;-79
2023/06/23 00:23:02;;;;;;;24.05;9.57;;;23.60;99.90;;;;;;4936218;29;20051;-81
2023/06/23 00:25:27;;;;;;;22.38;10.52;;;23.60;99.90;;;;;;4937309;29;20040;-80
2023/06/23 00:27:53;;;;;;;17.85;9.75;;;23.50;99.90;;;;;;4937747;29;20391;-78
2023/06/23 00:30:19;;;;;;;19.02;9.35;;;23.50;99.90;;;;;;4937355;29;20248;-81
2023/06/23 00:32:45;;;;;;;14.93;10.07;;;23.50;99.90;;;;;;4920560;29;20384;-74
2023/06/23 00:35:13;;;;;;;17.98;10.80;;;23.50;99.90;;;;;;4937269;29;20114;-81
2023/06/23 00:37:39;;;;;;;16.30;9.63;;;23.50;99.90;;;;;;4937396;29;20028;-79
2023/06/23 00:40:12;;;;;;;18.38;10.88;;;23.50;99.90;;;;;;4935954;29;20157;-78
2023/06/23 00:42:52;;;;;;;21.05;10.02;;;23.50;99.90;;;;;;4937017;29;20503;-80
2023/06/23 00:45:18;;;;;;;17.05;10.13;;;23.50;99.90;;;;;;4937212;29;20039;-80
2023/06/23 00:47:45;;;;;;;18.60;8.73;;;23.50;99.90;;;;;;4937105;29;20461;-80
2023/06/23 00:50:15;;;;;;;17.45;9.40;;;23.40;99.90;;;;;;4931744;29;20106;-81
2023/06/23 00:52:52;;;;;;;16.67;9.77;;;23.40;99.90;;;;;;4936906;29;20432;-81
2023/06/23 00:55:26;;;;;;;15.45;9.32;;;23.30;99.90;;;;;;4919705;29;20079;-80
2023/06/23 00:57:56;;;;;;;15.23;9.33;;;23.30;99.90;;;;;;4934105;29;20028;-80
2023/06/23 01:00:24;;;;;;;19.13;9.20;;;23.20;99.90;;;;;;4936714;29;20031;-78
2023/06/23 01:02:58;;;;;;;16.30;9.07;;;23.10;99.90;;;;;;4936873;29;20027;-79
2023/06/23 01:05:39;;;;;;;16.77;8.50;;;23.10;99.90;;;;;;4936474;29;20435;-79
2023/06/23 01:08:11;;;;;;;20.63;11.27;;;23.00;99.90;;;;;;4924700;28;20059;-78
2023/06/23 01:10:39;;;;;;;18.00;10.85;;;23.00;99.90;;;;;;4956029;28;20040;-78
2023/06/23 01:13:27;;;;;;;19.70;12.20;;;23.00;99.90;;;;;;4938421;28;20058;-79
2023/06/23 01:16:06;;;;;;;21.65;10.73;;;23.00;99.90;;;;;;4955670;28;20042;-79
2023/06/23 01:18:45;;;;;;;18.70;10.20;;;23.00;99.90;;;;;;4955791;28;20023;-77
2023/06/23 01:21:15;;;;;;;19.25;10.52;;;22.90;99.90;;;;;;4952128;28;20485;-78
2023/06/23 01:24:00;;;;;;;16.92;10.77;;;22.90;99.90;;;;;;4954385;29;20131;-78
2023/06/23 01:26:59;;;;;;;18.83;10.85;;;22.90;99.90;;;;;;4954622;28;20043;-76
2023/06/23 01:29:29;;;;;;;19.42;11.57;;;22.80;99.90;;;;;;4938352;28;20027;-78
2023/06/23 01:32:10;;;;;;;20.85;10.93;;;22.80;99.90;;;;;;4938021;29;20027;-79
2023/06/23 01:34:40;;;;;;;18.95;10.75;;;22.80;99.90;;;;;;4955057;28;20066;-79
2023/06/23 01:37:10;;;;;;;22.38;10.80;;;22.80;99.90;;;;;;4954197;28;20106;-78
2023/06/23 01:39:41;;;;;;;18.67;10.65;;;22.80;99.90;;;;;;4954938;28;20387;-79
2023/06/23 01:42:12;;;;;;;18.73;10.50;;;22.70;99.90;;;;;;4955258;28;20489;-80
2023/06/23 01:44:45;;;;;;;18.33;10.10;;;22.60;99.90;;;;;;4955175;28;20445;-79
2023/06/23 01:47:19;;;;;;;21.17;10.18;;;22.60;99.90;;;;;;4921837;28;20094;-79
2023/06/23 01:49:47;;;;;;;21.95;9.80;;;22.50;99.90;;;;;;4938196;29;20135;-80
2023/06/23 01:52:15;;;;;;;17.08;10.13;;;22.50;99.90;;;;;;4955016;28;20592;-81
2023/06/23 01:54:42;;;;;;;15.82;9.82;;;22.50;99.90;;;;;;4955401;28;20439;-78
2023/06/23 01:57:13;;;;;;;19.00;10.52;;;22.40;99.90;;;;;;4937591;29;20161;-78
2023/06/23 01:59:42;;;;;;;22.00;10.48;;;22.50;99.90;;;;;;4937985;29;20028;-81
2023/06/23 02:02:11;;;;;;;21.80;11.00;;;22.40;99.90;;;;;;4937294;29;20554;-80
2023/06/23 02:04:40;;;;;;;23.42;10.93;;;22.40;99.90;;;;;;4954827;28;20035;-79
2023/06/23 02:07:07;;;;;;;17.58;10.60;;;22.40;99.90;;;;;;4937436;28;20035;-81
2023/06/23 02:09:35;;;;;;;20.20;11.27;;;22.50;99.90;;;;;;4937476;29;20096;-80
2023/06/23 02:12:06;;;;;;;19.70;11.57;;;22.50;99.90;;;;;;4937575;29;20034;-81
2023/06/23 02:14:35;;;;;;;20.97;10.77;;;22.50;99.90;;;;;;4937186;29;20027;-80
2023/06/23 02:17:03;;;;;;;18.77;10.70;;;22.60;99.90;;;;;;4938557;28;20053;-81
2023/06/23 02:19:31;;;;;;;18.98;10.45;;;22.50;99.90;;;;;;4954284;28;20027;-80
2023/06/23 02:21:58;;;;;;;21.38;10.40;;;22.50;99.90;;;;;;4937118;29;20153;-81
2023/06/23 02:24:25;;;;;;;17.25;10.18;;;22.50;99.90;;;;;;4954638;28;20035;-79
2023/06/23 02:26:53;;;;;;;14.63;9.70;;;22.50;99.90;;;;;;4936832;29;20102;-80
2023/06/23 02:29:21;;;;;;;21.73;11.45;;;22.50;99.90;;;;;;4954552;28;20360;-80
2023/06/23 02:31:47;;;;;;;24.15;11.43;;;22.30;99.90;;;;;;4954396;28;20030;-80
2023/06/23 02:34:15;;;;;;;19.70;10.52;;;22.30;99.90;;;;;;4957490;28;20027;-80
2023/06/23 02:36:49;;;;;;;24.95;11.38;;;22.30;99.90;;;;;;4939706;29;20390;-80
2023/06/23 02:39:20;;;;;;;19.13;10.57;;;22.20;99.90;;;;;;4939624;29;20394;-80
2023/06/23 02:41:54;;;;;;;20.38;11.70;;;22.20;99.90;;;;;;4924217;29;20364;-80
2023/06/23 02:44:29;;;;;;;20.73;10.95;;;22.20;99.90;;;;;;4956045;28;20027;-78
2023/06/23 02:46:57;;;;;;;20.50;10.13;;;22.30;99.90;;;;;;4955343;28;20039;-80
2023/06/23 02:49:28;;;;;;;20.25;11.35;;;22.20;99.90;;;;;;4938404;29;20037;-80
2023/06/23 02:51:59;;;;;;;25.20;11.60;;;22.00;99.90;;;;;;4940027;29;20396;-80
2023/06/23 02:54:31;;;;;;;22.33;12.50;;;22.00;99.90;;;;;;4957042;28;20501;-80
2023/06/23 02:56:59;;;;;;;22.85;11.70;;;21.90;99.90;;;;;;4953852;28;20034;-80
2023/06/23 02:59:27;;;;;;;20.15;12.98;;;21.90;99.90;;;;;;4946662;28;20023;-80
2023/06/23 03:01:56;;;;;;;21.65;11.32;;;21.70;99.90;;;;;;4939089;29;20122;-80
2023/06/23 03:04:22;;;;;;;21.23;11.35;;;21.80;99.90;;;;;;4953436;28;20027;-80
2023/06/23 03:06:49;;;;;;;17.25;10.95;;;21.80;99.90;;;;;;4954011;28;20035;-79
2023/06/23 03:09:15;;;;;;;20.27;11.98;;;21.90;99.90;;;;;;4936065;29;20134;-80
2023/06/23 03:11:41;;;;;;;17.20;10.70;;;21.70;99.90;;;;;;4954034;28;20114;-80
2023/06/23 03:14:07;;;;;;;21.75;11.30;;;21.60;99.90;;;;;;4953667;28;20031;-79
2023/06/23 03:16:39;;;;;;;17.23;10.20;;;21.70;99.90;;;;;;4942779;28;20028;-80
2023/06/23 03:19:24;;;;;;;;;;;21.60;99.90;;;;;;4952742;28;20031;-80
2023/06/23 03:22:10;;;;;;;16.17;10.48;;;21.50;99.90;;;;;;4953619;29;19910;-80
2023/06/23 03:24:39;;;;;;;19.00;11.18;;;21.40;99.90;;;;;;4949686;28;20032;-81
2023/06/23 03:27:09;;;;;;;16.20;11.30;;;21.50;99.90;;;;;;4948825;28;20058;-81
2023/06/23 03:29:41;;;;;;;17.48;10.55;;;21.70;99.90;;;;;;4935985;29;20505;-81
2023/06/23 03:32:12;;;;;;;18.00;10.90;;;21.90;99.90;;;;;;4953598;29;20027;-80
2023/06/23 03:34:42;;;;;;;22.25;10.38;;;22.10;99.90;;;;;;4953628;28;20483;-80
2023/06/23 03:37:10;;;;;;;23.23;11.10;;;22.30;99.90;;;;;;4947200;29;20102;-81
2023/06/23 03:39:40;;;;;;;18.23;10.63;;;22.40;99.90;;;;;;4947816;28;20517;-76
2023/06/23 03:42:07;;;;;;;19.50;11.38;;;22.60;99.90;;;;;;4954004;28;20382;-75
2023/06/23 03:44:39;;;;;;;19.30;10.93;;;22.80;99.90;;;;;;4953829;28;20024;-80
2023/06/23 03:47:15;;;;;;;17.40;10.75;;;23.00;99.90;;;;;;4953197;28;20039;-79
2023/06/23 03:50:09;;;;;;;23.25;10.63;;;23.40;99.90;;;;;;4953510;28;20024;-77
2023/06/23 03:52:37;;;;;;;20.23;10.65;;;23.60;99.90;;;;;;4957332;28;20053;-79
2023/06/23 03:55:05;;;;;;;18.23;10.93;;;23.80;99.90;;;;;;4956913;28;20833;-80
2023/06/23 03:57:33;;;;;;;19.13;10.93;;;23.80;99.90;;;;;;4956858;28;20118;-81
2023/06/23 04:00:01;;;;;;;21.38;10.38;;;24.00;99.90;;;;;;4957012;29;20015;-81
2023/06/23 04:02:30;;;;;;;20.05;10.93;;;23.80;99.90;;;;;;4957227;28;20106;-80
2023/06/23 04:04:57;;;;;;;25.60;10.85;;;23.70;99.90;;;;;;4956978;29;20426;-81
2023/06/23 04:07:24;;;;;;;17.80;10.98;;;24.20;99.90;;;;;;4956244;29;20054;-75
2023/06/23 04:09:52;;;;;;;20.65;10.32;;;24.70;99.90;;;;;;4956526;29;20062;-80
2023/06/23 04:12:20;;;;;;;17.95;10.07;;;24.70;99.90;;;;;;4956683;28;20039;-80
2023/06/23 04:14:49;;;;;;;16.55;9.25;;;25.00;99.90;;;;;;4956858;29;20086;-80
2023/06/23 04:17:17;;;;;;;17.88;9.38;;;25.30;99.90;;;;;;4954026;29;20023;-80
2023/06/23 04:19:47;;;;;;;19.08;9.77;;;25.40;99.90;;;;;;4956497;28;20042;-80
2023/06/23 04:22:17;;;;;;;18.58;9.93;;;25.60;99.90;;;;;;4956534;29;20122;-80
2023/06/23 04:24:44;;;;;;;18.90;9.80;;;25.80;99.90;;;;;;4956542;29;20459;-80
2023/06/23 04:27:13;;;;;;;21.25;9.63;;;26.10;99.90;;;;;;4956524;29;20494;-81
2023/06/23 04:29:41;;;;;;;21.60;10.68;;;26.30;99.90;;;;;;4956101;29;20030;-81
2023/06/23 04:32:09;;;;;;;18.65;10.48;;;26.40;99.90;;;;;;4956777;29;20031;-83
2023/06/23 04:34:35;;;;;;;22.13;11.23;;;26.70;99.90;;;;;;4956076;28;20031;-81
2023/06/23 04:37:16;;;;;;;19.42;10.82;;;26.70;99.90;;;;;;4956306;28;20155;-82
2023/06/23 04:39:51;;;;;;;21.55;10.32;;;26.70;99.90;;;;;;4956705;29;20031;-82
2023/06/23 04:42:33;;;;;;;22.33;11.25;;;27.10;99.90;;;;;;4955858;28;20499;-77
2023/06/23 04:45:01;;;;;;;17.85;9.95;;;27.30;99.90;;;;;;4956442;28;20110;-82
2023/06/23 04:47:33;;;;;;;22.15;10.82;;;27.60;99.90;;;;;;4956091;29;20054;-77
2023/06/23 04:50:05;;;;;;;18.80;10.85;;;27.60;99.90;;;;;;4943904;29;20365;-84
2023/06/23 04:52:34;;;;;;;16.55;9.45;;;26.60;99.90;;;;;;4954956;28;20027;-82
2023/06/23 04:55:03;;;;;;;17.33;11.02;;;26.50;99.90;;;;;;4956052;29;20098;-82
2023/06/23 04:57:32;;;;;;;21.23;11.43;;;26.30;99.90;;;;;;4956319;29;20083;-83
2023/06/23 05:00:02;;;;;;;19.67;10.90;;;26.20;99.90;;;;;;4955831;28;20047;-83
2023/06/23 05:02:32;;;;;;;22.27;11.32;;;26.20;99.90;;;;;;4955199;28;20031;-84
2023/06/23 05:04:59;;;;;;;20.95;10.43;;;26.60;99.90;;;;;;4955383;28;20560;-83
2023/06/23 05:07:27;;;;;;;17.15;9.77;;;26.70;99.90;;;;;;4955672;28;20031;-84
2023/06/23 05:09:55;;;;;;;18.83;10.98;;;27.10;99.90;;;;;;4956032;29;20044;-81
2023/06/23 05:12:22;;;;;;;20.75;11.32;;;27.40;99.90;;;;;;4955543;28;20031;-84
2023/06/23 05:14:50;;;;;;;20.83;11.52;;;27.50;99.90;;;;;;4955860;29;20694;-83
2023/06/23 05:17:17;;;;;;;20.13;11.40;;;26.70;99.90;;;;;;4955987;29;20032;-83
2023/06/23 05:19:46;;;;;;;22.83;11.30;;;26.60;99.90;;;;;;4955607;29;20478;-84
2023/06/23 05:22:16;;;;;;;20.50;11.25;;;26.80;99.90;;;;;;4955772;28;20031;-80
2023/06/23 05:24:45;;;;;;;23.60;11.43;;;27.10;99.90;;;;;;4955190;28;20029;-83
2023/06/23 05:27:13;;;;;;;32.50;11.18;;;27.60;99.90;;;;;;4938297;29;20047;-78
2023/06/23 05:29:43;;;;;;;17.45;11.80;;;27.60;99.90;;;;;;4955180;28;20027;-82
2023/06/23 05:32:16;;;;;;;23.67;12.20;;;27.80;99.90;;;;;;4955895;29;20399;-76
2023/06/23 05:34:45;;;;;;;20.08;11.77;;;27.40;99.90;;;;;;4954933;28;20498;-83
2023/06/23 05:37:12;;;;;;;18.40;12.20;;;27.70;99.90;;;;;;4951070;29;20031;-82
2023/06/23 05:39:39;;;;;;;24.70;12.75;;;26.90;99.90;;;;;;4951970;28;20060;-84
2023/06/23 05:42:06;;;;;;;18.80;11.65;;;27.30;99.90;;;;;;4955077;28;20077;-82
2023/06/23 05:44:33;;;;;;;17.58;11.63;;;27.60;99.90;;;;;;4954930;28;20030;-83
2023/06/23 05:47:01;;;;;;;20.45;12.75;;;27.80;99.90;;;;;;4954934;29;20058;-82
2023/06/23 05:49:34;;;;;;;18.38;11.98;;;28.20;99.90;;;;;;4955316;28;20027;-81
2023/06/23 05:52:03;;;;;;;20.50;11.73;;;28.30;99.90;;;;;;4955148;28;20397;-80
2023/06/23 05:54:34;;;;;;;17.98;11.50;;;28.70;99.90;;;;;;4954853;28;20070;-83
2023/06/23 05:57:03;;;;;;;22.08;12.52;;;28.90;99.90;;;;;;4955052;29;20479;-80
2023/06/23 05:59:42;;;;;;;18.17;10.93;;;29.00;99.90;;;;;;4955284;28;20046;-82
2023/06/23 06:02:18;;;;;;;20.08;12.80;;;29.10;99.90;;;;;;4954998;29;20490;-83
2023/06/23 06:04:49;;;;;;;18.10;12.23;;;29.10;99.90;;;;;;4953106;29;20082;-81
2023/06/23 06:07:17;;;;;;;18.10;11.32;;;29.20;99.90;;;;;;4937454;29;20040;-83
2023/06/23 06:09:44;;;;;;;23.38;11.63;;;29.00;99.90;;;;;;4953722;28;20070;-82
2023/06/23 06:12:11;;;;;;;20.98;12.00;;;28.90;99.90;;;;;;4954102;28;20024;-75
2023/06/23 06:14:39;;;;;;;23.48;13.15;;;29.10;99.90;;;;;;4936537;28;20502;-83
2023/06/23 06:17:12;;;;;;;24.55;13.80;;;29.50;99.90;;;;;;4955267;28;20035;-83
2023/06/23 06:19:40;;;;;;;25.55;13.30;;;29.50;99.90;;;;;;4954585;28;20054;-82
2023/06/23 06:22:09;;;;;;;23.52;14.88;;;29.40;99.90;;;;;;4955522;28;20089;-84
2023/06/23 06:24:37;;;;;;;23.20;14.18;;;28.60;99.90;;;;;;4956174;28;20035;-81
2023/06/23 06:27:07;;;;;;;23.20;15.98;;;28.20;99.90;;;;;;4955447;28;20036;-83
2023/06/23 06:29:35;;;;;;;22.75;14.32;;;27.90;99.90;;;;;;4954046;28;20051;-82
2023/06/23 06:32:04;;;;;;;21.30;13.68;;;28.60;99.90;;;;;;4954106;28;20023;-82
2023/06/23 06:34:31;;;;;;;21.15;13.77;;;28.70;99.90;;;;;;4954878;28;20459;-78
2023/06/23 06:37:01;;;;;;;22.73;12.88;;;28.80;99.90;;;;;;4954125;28;20115;-80
2023/06/23 06:39:28;;;;;;;22.20;13.30;;;29.50;99.90;;;;;;4954724;28;20474;-82
2023/06/23 06:41:57;;;;;;;22.35;13.60;;;30.10;99.90;;;;;;4956735;29;20479;-82
2023/06/23 06:44:23;;;;;;;24.92;13.23;;;29.70;99.90;;;;;;4954835;28;20031;-80
2023/06/23 06:46:52;;;;;;;24.05;14.32;;;29.00;99.90;;;;;;4954735;28;20054;-82
2023/06/23 06:49:19;;;;;;;19.45;13.15;;;29.50;99.90;;;;;;4954369;28;20146;-81
2023/06/23 06:51:45;;;;;;;23.05;12.75;;;29.50;99.90;;;;;;4950070;28;20475;-82
2023/06/23 06:54:11;;;;;;;17.88;12.60;;;29.60;99.90;;;;;;4956093;28;20474;-78
2023/06/23 06:56:38;;;;;;;22.90;12.30;;;29.70;99.90;;;;;;4955788;28;20035;-79
2023/06/23 06:59:05;;;;;;;30.33;11.95;;;29.90;99.90;;;;;;4955422;28;20046;-78
2023/06/23 07:01:31;;;;;;;20.77;12.73;;;29.80;99.90;;;;;;4954991;28;20041;-81
2023/06/23 07:03:57;;;;;;;17.77;11.82;;;29.80;99.90;;;;;;4954579;28;20433;-81
2023/06/23 07:06:25;;;;;;;20.63;11.70;;;30.20;99.90;;;;;;4955578;28;20057;-82
2023/06/23 07:08:51;;;;;;;20.63;10.95;;;29.80;99.90;;;;;;4952709;28;20054;-83
2023/06/23 07:11:17;;;;;;;18.40;11.25;;;29.90;99.90;;;;;;4954857;29;20418;-80
2023/06/23 07:13:43;;;;;;;21.45;11.23;;;29.90;99.90;;;;;;4955824;28;20086;-82
2023/06/23 07:16:09;;;;;;;16.70;11.10;;;30.00;99.90;;;;;;4953930;29;20035;-81
2023/06/23 07:18:34;;;;;;;21.02;10.75;;;30.30;99.60;;;;;;4953960;29;20079;-81
2023/06/23 07:21:03;;;;;;;17.88;10.43;;;29.80;99.90;;;;;;4954016;29;20030;-78
2023/06/23 07:23:28;;;;;;;17.95;11.10;;;30.70;99.90;;;;;;4954606;28;20020;-73
2023/06/23 07:25:54;;;;;;;15.30;11.02;;;30.80;98.10;;;;;;4958392;28;20399;-84
2023/06/23 07:28:20;;;;;;;21.20;12.25;;;30.50;98.80;;;;;;4960350;28;20027;-83
2023/06/23 07:30:46;;;;;;;18.58;12.57;;;30.90;98.40;;;;;;4958404;28;20083;-82
2023/06/23 07:33:12;;;;;;;21.25;12.25;;;31.10;98.00;;;;;;4957718;28;20487;-82
2023/06/23 07:35:38;;;;;;;16.55;11.38;;;31.40;99.40;;;;;;4958426;29;20042;-83
2023/06/23 07:38:04;;;;;;;22.42;11.50;;;31.50;97.60;;;;;;4958475;28;20078;-82
2023/06/23 07:40:29;;;;;;;16.70;10.18;;;31.50;98.10;;;;;;4960297;29;20043;-74
2023/06/23 07:42:55;;;;;;;17.90;11.35;;;31.90;96.80;;;;;;4944901;29;20043;-84
2023/06/23 07:45:21;;;;;;;18.33;10.98;;;32.10;96.70;;;;;;4947485;29;20067;-81
2023/06/23 07:47:47;;;;;;;18.88;11.35;;;31.50;95.30;;;;;;4961459;29;20030;-79
2023/06/23 07:50:13;;;;;;;16.48;11.05;;;31.70;96.00;;;;;;4958834;29;20019;-84
2023/06/23 07:52:38;;;;;;;17.70;10.55;;;31.90;96.30;;;;;;4959428;29;20383;-84
2023/06/23 07:55:05;;;;;;;19.25;11.95;;;31.50;95.20;;;;;;4960291;29;20035;-76
2023/06/23 07:57:30;;;;;;;18.15;12.32;;;31.60;95.30;;;;;;4959318;28;20038;-79
2023/06/23 07:59:56;;;;;;;20.65;12.10;;;31.20;95.40;;;;;;4958933;28;20027;-80
2023/06/23 08:02:22;;;;;;;24.08;12.65;;;31.20;96.20;;;;;;4958496;28;20031;-81
2023/06/23 08:04:48;;;;;;;21.27;12.13;;;31.60;96.80;;;;;;4959313;29;20454;-82
2023/06/23 08:07:14;;;;;;;20.08;13.10;;;31.80;95.90;;;;;;4959811;29;20558;-76
2023/06/23 08:09:39;;;;;;;20.35;12.02;;;31.60;96.60;;;;;;4959296;28;20111;-81
2023/06/23 08:12:06;;;;;;;17.73;12.02;;;32.00;96.30;;;;;;4956976;28;20040;-84
2023/06/23 08:14:32;;;;;;;16.42;11.45;;;31.90;94.80;;;;;;4960437;28;20031;-80
2023/06/23 08:16:58;;;;;;;17.23;11.57;;;32.20;96.30;;;;;;4958826;28;20034;-85
2023/06/23 08:19:24;;;;;;;23.08;12.98;;;32.20;95.30;;;;;;4956798;28;20364;-81
2023/06/23 08:21:52;;;;;;;19.95;12.00;;;32.20;94.80;;;;;;4956615;28;20035;-80
2023/06/23 08:24:18;;;;;;;19.13;11.38;;;32.00;95.10;;;;;;4957321;28;20031;-81
2023/06/23 08:26:44;;;;;;;19.77;10.25;;;32.20;96.80;;;;;;4958042;28;20039;-83
2023/06/23 08:29:10;;;;;;;16.27;11.43;;;32.30;94.40;;;;;;4959131;28;20031;-82
2023/06/23 08:31:36;;;;;;;19.30;11.98;;;32.00;93.30;;;;;;4967397;29;20114;-85
2023/06/23 08:34:02;;;;;;;17.13;10.77;;;32.40;94.80;;;;;;4967825;28;20495;-75
2023/06/23 08:36:28;;;;;;;17.60;11.45;;;32.30;92.80;;;;;;4956310;28;20049;-78
2023/06/23 08:38:53;;;;;;;14.90;11.00;;;32.60;92.80;;;;;;4950430;28;20035;-84
2023/06/23 08:41:21;;;;;;;17.35;10.88;;;33.00;93.10;;;;;;4956629;28;20478;-78
2023/06/23 08:43:49;;;;;;;17.73;11.25;;;33.20;91.90;;;;;;4956376;28;20027;-80
2023/06/23 08:46:15;;;;;;;33.75;13.15;;;33.20;91.30;;;;;;4959382;28;20032;-85
2023/06/23 08:48:51;;;;;;;20.55;11.85;;;33.30;91.00;;;;;;4969641;28;20055;-84
2023/06/23 08:51:17;;;;;;;19.85;11.85;;;33.20;92.70;;;;;;4956387;28;20027;-82
2023/06/23 08:53:44;;;;;;;17.67;11.75;;;33.40;91.80;;;;;;4954645;28;20020;-83
2023/06/23 08:56:11;;;;;;;18.65;11.10;;;33.50;93.10;;;;;;4955195;28;20121;-83
2023/06/23 08:58:36;;;;;;;17.20;11.32;;;33.50;92.80;;;;;;4963720;28;20027;-82
2023/06/23 09:01:02;;;;;;;19.20;11.48;;;33.60;91.30;;;;;;4956515;28;20039;-83
2023/06/23 09:03:28;;;;;;;16.23;10.80;;;33.40;92.60;;;;;;4956218;28;20026;-83
2023/06/23 09:05:54;;;;;;;20.73;11.30;;;33.70;91.90;;;;;;4955822;28;20039;-82
2023/06/23 09:08:20;;;;;;;13.85;9.98;;;34.00;92.70;;;;;;4949557;28;20043;-80
2023/06/23 09:10:46;;;;;;;16.25;11.27;;;33.40;91.20;;;;;;4955884;28;20028;-80
2023/06/23 09:13:23;;;;;;;17.45;11.00;;;33.80;91.20;;;;;;4955585;28;20082;-80
2023/06/23 09:15:50;;;;;;;17.77;11.82;;;33.30;90.70;;;;;;4957828;28;20467;-83
2023/06/23 09:18:16;;;;;;;17.83;12.20;;;33.50;91.30;;;;;;4955811;28;20026;-83
2023/06/23 09:20:50;;;;;;;22.05;11.93;;;33.60;91.60;;;;;;4955683;28;20031;-82
2023/06/23 09:23:21;;;;;;;21.73;12.27;;;33.30;92.10;;;;;;4955687;28;20063;-81
2023/06/23 09:25:48;;;;;;;23.38;11.35;;;33.40;90.80;;;;;;4955402;28;20049;-84
2023/06/23 09:28:31;;;;;;;17.73;12.13;;;33.50;90.30;;;;;;4957257;28;20560;-80
2023/06/23 09:30:59;;;;;;;18.42;11.45;;;32.80;90.50;;;;;;4955428;28;20031;-81
2023/06/23 09:33:26;;;;;;;18.30;11.50;;;33.10;90.70;;;;;;4955426;28;20062;-82
2023/06/23 09:35:53;;;;;;;16.50;11.15;;;33.60;92.30;;;;;;4955460;28;20066;-82
2023/06/23 09:38:22;;;;;;;18.50;11.32;;;33.70;91.70;;;;;;4955962;28;20111;-83
2023/06/23 09:41:13;;;;;;;18.15;11.15;;;33.50;90.90;;;;;;4955051;28;20118;-82
2023/06/23 09:43:40;;;;;;;16.33;11.52;;;33.50;92.10;;;;;;4950347;28;20368;-83
2023/06/23 09:46:07;;;;;;;16.58;11.27;;;33.50;90.80;;;;;;4948940;28;20035;-81
2023/06/23 09:48:32;;;;;;;18.88;11.00;;;33.80;91.00;;;;;;4955899;28;20111;-81
2023/06/23 09:51:03;;;;;;;19.88;11.95;;;33.80;91.10;;;;;;4956714;28;20051;-78
2023/06/23 09:53:34;;;;;;;18.83;12.17;;;33.80;91.40;;;;;;4960682;28;20023;-81
2023/06/23 09:56:01;;;;;;;14.98;10.13;;;33.90;91.40;;;;;;4954793;28;20427;-81
2023/06/23 09:58:39;;;;;;;16.50;10.82;;;33.20;90.40;;;;;;4954557;28;20091;-81
2023/06/23 10:01:10;;;;;;;18.70;11.85;;;33.10;91.00;;;;;;4956993;28;20031;-81
2023/06/23 10:03:42;;;;;;;;;;;33.30;90.80;;;;;;4956218;28;20504;-84
2023/06/23 10:06:08;;;;;;;17.00;11.35;;;33.50;92.30;;;;;;4954948;28;19925;-81
2023/06/23 10:08:40;;;;;;;19.33;11.55;;;32.90;90.40;;;;;;4954589;28;20047;-75
2023/06/23 10:11:09;;;;;;;16.73;10.68;;;32.90;90.90;;;;;;4954336;28;20063;-75
2023/06/23 10:13:35;;;;;;;20.38;11.50;;;33.40;91.30;;;;;;4955162;28;20037;-79
2023/06/23 10:16:02;;;;;;;17.08;11.48;;;33.50;90.10;;;;;;4955192;28;20033;-81
2023/06/23 10:18:28;;;;;;;18.17;11.13;;;33.50;90.50;;;;;;4954677;28;20023;-81
2023/06/23 10:20:55;;;;;;;18.75;11.88;;;33.70;92.60;;;;;;4954358;28;20035;-78
2023/06/23 10:23:23;;;;;;;17.70;10.30;;;34.10;92.40;;;;;;4954184;28;20050;-80
2023/06/23 10:25:54;;;;;;;21.75;10.23;;;33.80;90.80;;;;;;4954540;28;20035;-76
2023/06/23 10:28:22;;;;;;;;;;;33.70;87.80;;;;;;4943789;28;20040;-80
2023/06/23 10:30:48;;;;;;;17.33;11.60;;;34.00;88.30;;;;;;4956544;28;20376;-80
2023/06/23 10:33:19;;;;;;;16.15;10.57;;;34.00;86.80;;;;;;4954026;28;20394;-82
2023/06/23 10:35:47;;;;;;;21.50;11.63;;;33.90;89.20;;;;;;4956707;28;20039;-85
2023/06/23 10:38:20;;;;;;;19.75;10.32;;;34.10;90.10;;;;;;4954664;28;20445;-82
2023/06/23 10:40:50;;;;;;;18.67;10.50;;;34.20;89.10;;;;;;4954787;28;20043;-83
2023/06/23 10:43:18;;;;;;;20.02;11.23;;;34.30;90.60;;;;;;4936762;29;20443;-80
2023/06/23 10:45:45;;;;;;;18.85;10.40;;;34.30;86.60;;;;;;4954461;28;20059;-81
2023/06/23 10:48:11;;;;;;;17.48;10.93;;;34.40;87.10;;;;;;4953642;28;20019;-87
2023/06/23 10:50:40;;;;;;;19.90;10.45;;;34.10;87.50;;;;;;4954694;28;20031;-81
2023/06/23 10:53:17;;;;;;;24.92;11.35;;;34.20;87.80;;;;;;4946580;28;20360;-79
2023/06/23 10:55:45;;;;;;;20.75;9.80;;;34.30;86.30;;;;;;4954304;28;20031;-84
2023/06/23 10:58:18;;;;;;;20.80;11.02;;;34.20;83.10;;;;;;4953452;28;20027;-81
2023/06/23 11:00:57;;;;;;;16.98;10.10;;;33.90;84.80;;;;;;4951335;28;20035;-78
2023/06/23 11:03:34;;;;;;;18.67;9.73;;;34.20;86.80;;;;;;4954634;28;20442;-85
2023/06/23 11:06:04;;;;;;;14.05;9.30;;;34.30;85.70;;;;;;4953809;28;20394;-74
2023/06/23 11:08:35;;;;;;;16.02;8.68;;;34.30;84.10;;;;;;4954167;28;20043;-83
2023/06/23 11:11:05;;;;;;;19.98;9.57;;;34.40;82.00;;;;;;4950878;28;20031;-78
2023/06/23 11:13:35;;;;;;;21.08;9.57;;;34.60;82.90;;;;;;4946897;28;20106;-79
2023/06/23 11:16:02;;;;;;;16.08;9.93;;;34.60;83.50;;;;;;4954083;28;20450;-81
2023/06/23 11:18:28;;;;;;;16.02;8.43;;;34.50;80.90;;;;;;4952720;28;20408;-78
2023/06/23 11:21:00;;;;;;;24.08;9.77;;;34.50;79.70;;;;;;4952222;28;20038;-80
2023/06/23 11:23:26;;;;;;;16.00;9.90;;;34.50;79.50;;;;;;4944243;28;20538;-73
2023/06/23 11:25:53;;;;;;;18.20;9.82;;;34.30;80.60;;;;;;4949841;28;20039;-79
2023/06/23 11:28:35;;;;;;;18.42;10.43;;;34.50;79.80;;;;;;4942625;28;20079;-74
2023/06/23 11:31:14;;;;;;;16.10;8.85;;;34.80;83.60;;;;;;4943421;29;20485;-75
2023/06/23 11:33:42;;;;;;;17.02;9.93;;;34.90;79.40;;;;;;4945771;28;20472;-80
2023/06/23 11:36:13;;;;;;;18.83;9.77;;;34.90;80.10;;;;;;4950681;28;20023;-79
2023/06/23 11:38:40;;;;;;;16.65;10.20;;;35.00;79.10;;;;;;4952506;28;20054;-78
2023/06/23 11:41:06;;;;;;;17.38;9.35;;;34.40;78.90;;;;;;4934560;29;20040;-73
2023/06/23 11:43:39;;;;;;;18.20;9.43;;;34.50;80.00;;;;;;4943471;28;20031;-80
2023/06/23 11:46:14;;;;;;;17.00;9.52;;;34.70;78.60;;;;;;4947778;28;20035;-81
2023/06/23 11:48:42;;;;;;;19.92;10.45;;;34.70;77.10;;;;;;4933908;29;20106;-78
2023/06/23 11:51:11;;;;;;;16.70;10.02;;;34.80;76.10;;;;;;4940478;28;20483;-77
2023/06/23 11:53:40;;;;;;;28.73;10.85;;;34.80;75.60;;;;;;4953474;28;20031;-72
2023/06/23 11:56:06;;;;;;;20.35;10.77;;;34.80;75.70;;;;;;4941470;28;20114;-77
2023/06/23 11:58:33;;;;;;;19.88;10.30;;;34.90;78.80;;;;;;4953484;28;20041;-78
2023/06/23 12:01:00;;;;;;;15.52;9.05;;;34.90;75.10;;;;;;4953639;28;20023;-81
2023/06/23 12:03:28;;;;;;;21.58;10.05;;;35.00;78.70;;;;;;4953207;28;20027;-81
2023/06/23 12:05:55;;;;;;;17.50;9.07;;;35.00;76.50;;;;;;4953356;28;20028;-76
2023/06/23 12:08:26;;;;;;;15.23;8.57;;;35.00;74.30;;;;;;4953104;28;20118;-81
2023/06/23 12:10:53;;;;;;;17.60;9.45;;;34.60;71.00;;;;;;4953591;28;20059;-81
2023/06/23 12:13:19;;;;;;;17.02;9.88;;;35.00;72.80;;;;;;4956847;28;20027;-79
2023/06/23 12:15:46;;;;;;;21.70;9.88;;;35.00;70.90;;;;;;4956796;28;20065;-79
2023/06/23 12:18:12;;;;;;;19.45;10.27;;;35.00;70.50;;;;;;4956889;28;20551;-79
2023/06/23 12:20:44;;;;;;;21.92;10.45;;;35.00;71.30;;;;;;4956558;28;20062;-79
2023/06/23 12:23:11;;;;;;;18.38;11.63;;;34.90;72.20;;;;;;4956841;28;20031;-81
2023/06/23 12:25:51;;;;;;;15.50;10.63;;;35.50;69.00;;;;;;4939057;29;20039;-80
2023/06/23 12:28:19;;;;;;;22.98;11.55;;;35.60;69.30;;;;;;4956491;28;20027;-81
2023/06/23 12:30:49;;;;;;;21.88;11.65;;;35.40;65.40;;;;;;4956792;28;20053;-80
2023/06/23 12:33:28;;;;;;;19.77;14.37;;;35.60;68.20;;;;;;4956458;28;20032;-79
2023/06/23 12:36:08;;;;;;;25.90;13.98;;;35.40;64.40;;;;;;4956781;28;20043;-75
2023/06/23 12:38:35;;;;;;;18.55;13.32;;;35.40;73.90;;;;;;4957140;29;20105;-83
2023/06/23 12:41:29;;;;;;;23.48;14.68;;;35.50;75.10;;;;;;4957287;28;20035;-83